sensor_id;sensor_type;location;lat;lon;timestamp;pressure;altitude;pressure_sealevel;temperature;humidity
24230;BME280;12362;50.004;8.006;2023-12-20T00:00:59;100622.09;;;5.73;100.00
24230;BME280;12362;50.004;8.006;2023-12-20T00:03:24;100623.75;;;5.76;100.00
24230;BME280;12362;50.004;8.006;2023-12-20T00:05:50;100625.34;;;5.81;100.00
24230;BME280;12362;50.004;8.006;2023-12-20T00:08:16;100622.81;;;5.80;100.00
24230;BME280;12362;50.004;8.006;2023-12-20T00:10:43;100612.59;;;5.77;100.00
24230;BME280;12362;50.004;8.006;2023-12-20T00:13:08;100616.03;;;5.76;100.00
24230;BME280;12362;50.004;8.006;2023-12-20T00:15:34;100609.25;;;5.72;100.00
24230;BME280;12362;50.004;8.006;2023-12-20T00:18:00;100611.88;;;5.70;100.00
24230;BME280;12362;50.004;8.006;2023-12-20T00:20:26;100615.28;;;5.71;100.00
24230;BME280;12362;50.004;8.006;2023-12-20T00:22:53;100605.78;;;5.73;100.00
24230;BME280;12362;50.004;8.006;2023-12-20T00:25:19;100599.69;;;5.75;100.00
24230;BME280;12362;50.004;8.006;2023-12-20T00:27:44;100600.56;;;5.76;100.00
24230;BME280;12362;50.004;8.006;2023-12-20T00:30:10;100600.59;;;5.74;100.00
24230;BME280;12362;50.004;8.006;2023-12-20T00:32:35;100596.28;;;5.75;100.00
24230;BME280;12362;50.004;8.006;2023-12-20T00:35:01;100591.97;;;5.75;100.00
24230;BME280;12362;50.004;8.006;2023-12-20T00:37:26;100597.97;;;5.77;100.00
24230;BME280;12362;50.004;8.006;2023-12-20T00:39:52;100608.28;;;5.77;100.00
24230;BME280;12362;50.004;8.006;2023-12-20T00:42:17;100591.97;;;5.75;100.00
24230;BME280;12362;50.004;8.006;2023-12-20T00:44:43;100592.84;;;5.76;100.00
24230;BME280;12362;50.004;8.006;2023-12-20T00:47:08;100592.84;;;5.76;100.00
24230;BME280;12362;50.004;8.006;2023-12-20T00:49:34;100592.00;;;5.77;100.00
24230;BME280;12362;50.004;8.006;2023-12-20T00:51:59;100585.94;;;5.78;100.00
24230;BME280;12362;50.004;8.006;2023-12-20T00:54:25;100594.50;;;5.80;100.00
24230;BME280;12362;50.004;8.006;2023-12-20T00:56:50;100585.91;;;5.79;100.00
24230;BME280;12362;50.004;8.006;2023-12-20T00:59:16;100583.38;;;5.78;100.00
24230;BME280;12362;50.004;8.006;2023-12-20T01:01:42;100582.38;;;5.82;100.00
24230;BME280;12362;50.004;8.006;2023-12-20T01:04:07;100578.13;;;5.81;100.00
24230;BME280;12362;50.004;8.006;2023-12-20T01:06:33;100570.38;;;5.82;100.00
24230;BME280;12362;50.004;8.006;2023-12-20T01:08:58;100572.94;;;5.82;100.00
24230;BME280;12362;50.004;8.006;2023-12-20T01:11:23;100578.91;;;5.84;100.00
24230;BME280;12362;50.004;8.006;2023-12-20T01:13:49;100572.09;;;5.82;100.00
24230;BME280;12362;50.004;8.006;2023-12-20T01:16:15;100577.22;;;5.83;100.00
24230;BME280;12362;50.004;8.006;2023-12-20T01:18:40;100572.91;;;5.84;100.00
24230;BME280;12362;50.004;8.006;2023-12-20T01:21:06;100584.97;;;5.82;100.00
24230;BME280;12362;50.004;8.006;2023-12-20T01:23:32;100571.25;;;5.81;100.00
24230;BME280;12362;50.004;8.006;2023-12-20T01:25:58;100561.78;;;5.82;100.00
24230;BME280;12362;50.004;8.006;2023-12-20T01:28:25;100568.69;;;5.81;100.00
24230;BME280;12362;50.004;8.006;2023-12-20T01:30:51;100566.94;;;5.82;100.00
24230;BME280;12362;50.004;8.006;2023-12-20T01:33:16;100567.78;;;5.82;100.00
24230;BME280;12362;50.004;8.006;2023-12-20T01:35:42;100563.44;;;5.84;100.00
24230;BME280;12362;50.004;8.006;2023-12-20T01:38:07;100580.69;;;5.81;100.00
24230;BME280;12362;50.004;8.006;2023-12-20T01:40:33;100589.28;;;5.81;100.00
24230;BME280;12362;50.004;8.006;2023-12-20T01:43:02;100599.47;;;5.86;100.00
24230;BME280;12362;50.004;8.006;2023-12-20T01:45:31;100601.22;;;5.84;100.00
24230;BME280;12362;50.004;8.006;2023-12-20T01:47:57;100588.34;;;5.84;100.00
24230;BME280;12362;50.004;8.006;2023-12-20T01:50:24;100567.03;;;5.79;100.00
24230;BME280;12362;50.004;8.006;2023-12-20T01:52:50;100579.91;;;5.79;100.00
24230;BME280;12362;50.004;8.006;2023-12-20T01:55:19;100586.81;;;5.75;100.00
24230;BME280;12362;50.004;8.006;2023-12-20T01:57:45;100595.41;;;5.77;100.00
24230;BME280;12362;50.004;8.006;2023-12-20T02:00:13;100590.25;;;5.77;100.00
24230;BME280;12362;50.004;8.006;2023-12-20T02:02:40;100574.81;;;5.76;100.00
24230;BME280;12362;50.004;8.006;2023-12-20T02:05:06;100588.56;;;5.75;100.00
24230;BME280;12362;50.004;8.006;2023-12-20T02:07:32;100574.94;;;5.71;100.00
24230;BME280;12362;50.004;8.006;2023-12-20T02:10:03;100557.78;;;5.70;100.00
24230;BME280;12362;50.004;8.006;2023-12-20T02:12:30;100560.34;;;5.70;100.00
24230;BME280;12362;50.004;8.006;2023-12-20T02:14:55;100568.09;;;5.70;100.00
24230;BME280;12362;50.004;8.006;2023-12-20T02:17:22;100569.81;;;5.70;100.00
24230;BME280;12362;50.004;8.006;2023-12-20T02:19:49;100570.75;;;5.67;100.00
24230;BME280;12362;50.004;8.006;2023-12-20T02:22:14;100573.38;;;5.64;100.00
24230;BME280;12362;50.004;8.006;2023-12-20T02:24:40;100574.25;;;5.65;100.00
24230;BME280;12362;50.004;8.006;2023-12-20T02:27:06;100581.16;;;5.63;100.00
24230;BME280;12362;50.004;8.006;2023-12-20T02:29:35;100576.00;;;5.63;100.00
24230;BME280;12362;50.004;8.006;2023-12-20T02:32:01;100589.69;;;5.65;100.00
24230;BME280;12362;50.004;8.006;2023-12-20T02:34:28;100580.97;;;5.69;100.00
24230;BME280;12362;50.004;8.006;2023-12-20T02:36:54;100576.69;;;5.69;100.00
24230;BME280;12362;50.004;8.006;2023-12-20T02:39:19;100577.50;;;5.71;100.00
24230;BME280;12362;50.004;8.006;2023-12-20T02:41:45;100575.69;;;5.75;100.00
24230;BME280;12362;50.004;8.006;2023-12-20T02:44:10;100582.53;;;5.76;100.00
24230;BME280;12362;50.004;8.006;2023-12-20T02:46:36;100579.97;;;5.76;100.00
24230;BME280;12362;50.004;8.006;2023-12-20T02:49:01;100589.34;;;5.80;100.00
24230;BME280;12362;50.004;8.006;2023-12-20T02:51:27;100591.00;;;5.81;100.00
24230;BME280;12362;50.004;8.006;2023-12-20T02:53:52;100595.31;;;5.80;100.00
24230;BME280;12362;50.004;8.006;2023-12-20T02:56:17;100594.44;;;5.81;100.00
24230;BME280;12362;50.004;8.006;2023-12-20T02:58:43;100596.06;;;5.84;100.00
24230;BME280;12362;50.004;8.006;2023-12-20T03:01:08;100590.03;;;5.85;100.00
24230;BME280;12362;50.004;8.006;2023-12-20T03:03:34;100590.91;;;5.85;100.00
24230;BME280;12362;50.004;8.006;2023-12-20T03:06:00;100578.91;;;5.84;100.00
24230;BME280;12362;50.004;8.006;2023-12-20T03:08:26;100573.66;;;5.87;100.00
24230;BME280;12362;50.004;8.006;2023-12-20T03:10:51;100578.03;;;5.85;100.00
24230;BME280;12362;50.004;8.006;2023-12-20T03:13:16;100589.28;;;5.81;100.00
24230;BME280;12362;50.004;8.006;2023-12-20T03:15:42;100585.06;;;5.79;100.00
24230;BME280;12362;50.004;8.006;2023-12-20T03:18:07;100588.41;;;5.81;100.00
24230;BME280;12362;50.004;8.006;2023-12-20T03:20:33;100594.38;;;5.84;100.00
24230;BME280;12362;50.004;8.006;2023-12-20T03:23:03;100600.28;;;5.86;100.00
24230;BME280;12362;50.004;8.006;2023-12-20T03:25:28;100614.81;;;5.90;100.00
24230;BME280;12362;50.004;8.006;2023-12-20T03:27:54;100604.56;;;5.87;100.00
24230;BME280;12362;50.004;8.006;2023-12-20T03:30:19;100611.38;;;5.90;100.00
24230;BME280;12362;50.004;8.006;2023-12-20T03:32:45;100622.53;;;5.90;100.00
24230;BME280;12362;50.004;8.006;2023-12-20T03:35:11;100617.34;;;5.92;100.00
24230;BME280;12362;50.004;8.006;2023-12-20T03:37:36;100620.81;;;5.91;100.00
24230;BME280;12362;50.004;8.006;2023-12-20T03:40:02;100619.94;;;5.92;100.00
24230;BME280;12362;50.004;8.006;2023-12-20T03:42:28;100624.16;;;5.94;100.00
24230;BME280;12362;50.004;8.006;2023-12-20T03:44:54;100632.75;;;5.93;100.00
24230;BME280;12362;50.004;8.006;2023-12-20T03:47:19;100633.66;;;5.92;100.00
24230;BME280;12362;50.004;8.006;2023-12-20T03:49:45;100631.00;;;5.95;100.00
24230;BME280;12362;50.004;8.006;2023-12-20T03:52:10;100629.22;;;5.97;100.00
24230;BME280;12362;50.004;8.006;2023-12-20T03:54:35;100624.91;;;5.98;100.00
24230;BME280;12362;50.004;8.006;2023-12-20T03:57:01;100617.31;;;5.93;100.00
24230;BME280;12362;50.004;8.006;2023-12-20T03:59:26;100615.66;;;5.91;100.00
24230;BME280;12362;50.004;8.006;2023-12-20T04:01:52;100615.84;;;5.83;100.00
24230;BME280;12362;50.004;8.006;2023-12-20T04:04:18;100623.75;;;5.76;100.00
24230;BME280;12362;50.004;8.006;2023-12-20T04:06:44;100636.06;;;5.65;100.00
24230;BME280;12362;50.004;8.006;2023-12-20T04:09:09;100631.59;;;5.71;100.00
24230;BME280;12362;50.004;8.006;2023-12-20T04:11:36;100640.75;;;5.83;100.00
24230;BME280;12362;50.004;8.006;2023-12-20T04:14:02;100645.81;;;6.18;100.00
24230;BME280;12362;50.004;8.006;2023-12-20T04:16:27;100644.13;;;6.47;100.00
24230;BME280;12362;50.004;8.006;2023-12-20T04:18:52;100651.38;;;6.63;100.00
24230;BME280;12362;50.004;8.006;2023-12-20T04:21:18;100651.09;;;6.74;100.00
24230;BME280;12362;50.004;8.006;2023-12-20T04:23:43;100637.38;;;6.72;100.00
24230;BME280;12362;50.004;8.006;2023-12-20T04:26:10;100642.31;;;6.79;100.00
24230;BME280;12362;50.004;8.006;2023-12-20T04:28:35;100641.13;;;6.91;100.00
24230;BME280;12362;50.004;8.006;2023-12-20T04:31:01;100650.59;;;6.90;100.00
24230;BME280;12362;50.004;8.006;2023-12-20T04:33:26;100643.94;;;6.83;100.00
24230;BME280;12362;50.004;8.006;2023-12-20T04:35:52;100656.44;;;6.68;100.00
24230;BME280;12362;50.004;8.006;2023-12-20T04:38:17;100654.75;;;6.67;100.00
24230;BME280;12362;50.004;8.006;2023-12-20T04:40:43;100665.22;;;6.61;100.00
24230;BME280;12362;50.004;8.006;2023-12-20T04:43:08;100668.16;;;6.49;100.00
24230;BME280;12362;50.004;8.006;2023-12-20T04:45:36;100677.22;;;6.33;100.00
24230;BME280;12362;50.004;8.006;2023-12-20T04:48:02;100680.06;;;6.23;100.00
24230;BME280;12362;50.004;8.006;2023-12-20T04:50:28;100692.22;;;6.19;100.00
24230;BME280;12362;50.004;8.006;2023-12-20T04:52:53;100691.34;;;6.19;100.00
24230;BME280;12362;50.004;8.006;2023-12-20T04:55:19;100675.16;;;6.14;100.00
24230;BME280;12362;50.004;8.006;2023-12-20T04:57:45;100690.75;;;6.09;100.00
24230;BME280;12362;50.004;8.006;2023-12-20T05:00:11;100684.28;;;5.93;100.00
24230;BME280;12362;50.004;8.006;2023-12-20T05:02:37;100681.53;;;6.01;100.00
24230;BME280;12362;50.004;8.006;2023-12-20T05:05:03;100680.66;;;6.02;100.00
24230;BME280;12362;50.004;8.006;2023-12-20T05:07:28;100679.06;;;5.96;100.00
24230;BME280;12362;50.004;8.006;2023-12-20T05:09:54;100687.81;;;5.89;100.00
24230;BME280;12362;50.004;8.006;2023-12-20T05:12:19;100693.56;;;6.00;100.00
24230;BME280;12362;50.004;8.006;2023-12-20T05:14:46;100691.22;;;5.91;100.00
24230;BME280;12362;50.004;8.006;2023-12-20T05:17:11;100687.00;;;5.87;100.00
24230;BME280;12362;50.004;8.006;2023-12-20T05:19:37;100687.25;;;5.78;100.00
24230;BME280;12362;50.004;8.006;2023-12-20T05:22:03;100694.16;;;5.78;100.00
24230;BME280;12362;50.004;8.006;2023-12-20T05:24:28;100699.41;;;5.72;100.00
24230;BME280;12362;50.004;8.006;2023-12-20T05:26:54;100693.41;;;5.71;100.00
24230;BME280;12362;50.004;8.006;2023-12-20T05:29:20;100690.78;;;5.73;100.00
24230;BME280;12362;50.004;8.006;2023-12-20T05:31:45;100695.13;;;5.71;100.00
24230;BME280;12362;50.004;8.006;2023-12-20T05:34:11;100699.59;;;5.64;100.00
24230;BME280;12362;50.004;8.006;2023-12-20T05:36:37;100694.53;;;5.60;100.00
24230;BME280;12362;50.004;8.006;2023-12-20T05:39:03;100699.88;;;5.52;100.00
24230;BME280;12362;50.004;8.006;2023-12-20T05:41:29;100704.31;;;5.47;100.00
24230;BME280;12362;50.004;8.006;2023-12-20T05:43:55;100701.69;;;5.49;100.00
24230;BME280;12362;50.004;8.006;2023-12-20T05:46:20;100685.31;;;5.51;100.00
24230;BME280;12362;50.004;8.006;2023-12-20T05:48:47;100687.94;;;5.50;100.00
24230;BME280;12362;50.004;8.006;2023-12-20T05:51:13;100692.09;;;5.55;100.00
24230;BME280;12362;50.004;8.006;2023-12-20T05:53:39;100693.53;;;5.67;100.00
24230;BME280;12362;50.004;8.006;2023-12-20T05:56:04;100696.09;;;5.67;100.00
24230;BME280;12362;50.004;8.006;2023-12-20T05:58:30;100680.78;;;5.61;100.00
24230;BME280;12362;50.004;8.006;2023-12-20T06:00:55;100693.78;;;5.56;100.00
24230;BME280;12362;50.004;8.006;2023-12-20T06:03:21;100697.47;;;5.46;100.00
24230;BME280;12362;50.004;8.006;2023-12-20T06:05:46;100719.06;;;5.39;100.00
24230;BME280;12362;50.004;8.006;2023-12-20T06:08:12;100717.56;;;5.30;100.00
24230;BME280;12362;50.004;8.006;2023-12-20T06:10:38;100726.97;;;5.32;100.00
24230;BME280;12362;50.004;8.006;2023-12-20T06:13:03;100732.97;;;5.33;100.00
24230;BME280;12362;50.004;8.006;2023-12-20T06:15:30;100742.53;;;5.26;100.00
24230;BME280;12362;50.004;8.006;2023-12-20T06:17:55;100733.28;;;5.18;100.00
24230;BME280;12362;50.004;8.006;2023-12-20T06:20:21;100725.66;;;5.13;100.00
24230;BME280;12362;50.004;8.006;2023-12-20T06:22:46;100722.31;;;5.10;100.00
24230;BME280;12362;50.004;8.006;2023-12-20T06:25:12;100729.06;;;5.15;100.00
24230;BME280;12362;50.004;8.006;2023-12-20T06:27:37;100737.47;;;5.23;100.00
24230;BME280;12362;50.004;8.006;2023-12-20T06:30:03;100738.06;;;5.34;100.00
24230;BME280;12362;50.004;8.006;2023-12-20T06:32:29;100724.97;;;5.44;100.00
24230;BME280;12362;50.004;8.006;2023-12-20T06:34:54;100704.97;;;5.55;100.00
24230;BME280;12362;50.004;8.006;2023-12-20T06:37:23;100706.00;;;5.47;100.00
24230;BME280;12362;50.004;8.006;2023-12-20T06:39:48;100701.16;;;5.35;100.00
24230;BME280;12362;50.004;8.006;2023-12-20T06:42:14;100706.47;;;5.28;100.00
24230;BME280;12362;50.004;8.006;2023-12-20T06:44:39;100720.38;;;5.21;100.00
24230;BME280;12362;50.004;8.006;2023-12-20T06:47:05;100715.53;;;5.07;100.00
24230;BME280;12362;50.004;8.006;2023-12-20T06:49:30;100714.81;;;5.01;100.00
24230;BME280;12362;50.004;8.006;2023-12-20T06:51:56;100717.41;;;4.99;100.00
24230;BME280;12362;50.004;8.006;2023-12-20T06:54:21;100720.94;;;4.95;100.00
24230;BME280;12362;50.004;8.006;2023-12-20T06:56:47;100709.06;;;4.88;100.00
24230;BME280;12362;50.004;8.006;2023-12-20T06:59:12;100717.59;;;4.90;100.00
24230;BME280;12362;50.004;8.006;2023-12-20T07:01:38;100725.34;;;4.89;100.00
24230;BME280;12362;50.004;8.006;2023-12-20T07:04:03;100752.00;;;4.85;100.00
24230;BME280;12362;50.004;8.006;2023-12-20T07:06:29;100752.94;;;4.81;100.00
24230;BME280;12362;50.004;8.006;2023-12-20T07:09:03;100755.47;;;4.84;100.00
24230;BME280;12362;50.004;8.006;2023-12-20T07:11:29;100745.88;;;4.90;100.00
24230;BME280;12362;50.004;8.006;2023-12-20T07:13:54;100745.06;;;4.90;100.00
24230;BME280;12362;50.004;8.006;2023-12-20T07:16:20;100746.75;;;4.89;100.00
24230;BME280;12362;50.004;8.006;2023-12-20T07:18:45;100747.75;;;4.84;100.00
24230;BME280;12362;50.004;8.006;2023-12-20T07:21:11;100760.75;;;4.76;100.00
24230;BME280;12362;50.004;8.006;2023-12-20T07:23:36;100768.78;;;4.60;100.00
24230;BME280;12362;50.004;8.006;2023-12-20T07:26:02;100772.19;;;4.62;100.00
24230;BME280;12362;50.004;8.006;2023-12-20T07:28:29;100777.94;;;4.74;100.00
24230;BME280;12362;50.004;8.006;2023-12-20T07:30:54;100780.50;;;4.74;100.00
24230;BME280;12362;50.004;8.006;2023-12-20T07:33:20;100778.19;;;4.61;100.00
24230;BME280;12362;50.004;8.006;2023-12-20T07:35:45;100789.44;;;4.55;100.00
24230;BME280;12362;50.004;8.006;2023-12-20T07:38:11;100794.63;;;4.54;100.00
24230;BME280;12362;50.004;8.006;2023-12-20T07:40:37;100786.91;;;4.54;100.00
24230;BME280;12362;50.004;8.006;2023-12-20T07:43:04;100786.19;;;4.47;100.00
24230;BME280;12362;50.004;8.006;2023-12-20T07:45:29;100790.56;;;4.41;100.00
24230;BME280;12362;50.004;8.006;2023-12-20T07:47:55;100799.91;;;4.47;100.00
24230;BME280;12362;50.004;8.006;2023-12-20T07:50:20;100814.38;;;4.52;100.00
24230;BME280;12362;50.004;8.006;2023-12-20T07:52:46;100804.09;;;4.52;100.00
24230;BME280;12362;50.004;8.006;2023-12-20T07:55:11;100788.66;;;4.50;100.00
24230;BME280;12362;50.004;8.006;2023-12-20T07:57:37;100804.88;;;4.55;100.00
24230;BME280;12362;50.004;8.006;2023-12-20T08:00:03;100801.25;;;4.65;100.00
24230;BME280;12362;50.004;8.006;2023-12-20T08:02:29;100795.97;;;4.73;100.00
24230;BME280;12362;50.004;8.006;2023-12-20T08:04:55;100789.03;;;4.76;100.00
24230;BME280;12362;50.004;8.006;2023-12-20T08:07:21;100793.50;;;4.68;100.00
24230;BME280;12362;50.004;8.006;2023-12-20T08:09:46;100799.41;;;4.72;100.00
24230;BME280;12362;50.004;8.006;2023-12-20T08:12:12;100801.81;;;4.81;100.00
24230;BME280;12362;50.004;8.006;2023-12-20T08:14:37;100799.16;;;4.85;100.00
24230;BME280;12362;50.004;8.006;2023-12-20T08:17:03;100793.84;;;4.94;100.00
24230;BME280;12362;50.004;8.006;2023-12-20T08:19:28;100803.13;;;5.01;100.00
24230;BME280;12362;50.004;8.006;2023-12-20T08:21:53;100791.22;;;4.97;100.00
24230;BME280;12362;50.004;8.006;2023-12-20T08:24:19;100803.06;;;5.04;100.00
24230;BME280;12362;50.004;8.006;2023-12-20T08:26:44;100802.88;;;5.13;100.00
24230;BME280;12362;50.004;8.006;2023-12-20T08:29:13;100811.34;;;5.18;100.00
24230;BME280;12362;50.004;8.006;2023-12-20T08:31:38;100824.97;;;5.23;100.00
24230;BME280;12362;50.004;8.006;2023-12-20T08:34:04;100818.97;;;5.23;100.00
24230;BME280;12362;50.004;8.006;2023-12-20T08:36:29;100810.34;;;5.27;100.00
24230;BME280;12362;50.004;8.006;2023-12-20T08:38:56;100811.00;;;5.35;100.00
24230;BME280;12362;50.004;8.006;2023-12-20T08:41:21;100809.97;;;5.43;100.00
24230;BME280;12362;50.004;8.006;2023-12-20T08:43:47;100808.78;;;5.57;100.00
24230;BME280;12362;50.004;8.006;2023-12-20T08:46:15;100813.66;;;5.69;100.00
24230;BME280;12362;50.004;8.006;2023-12-20T08:48:40;100818.63;;;5.80;100.00
24230;BME280;12362;50.004;8.006;2023-12-20T08:51:06;100808.91;;;5.91;100.00
24230;BME280;12362;50.004;8.006;2023-12-20T08:53:33;100808.75;;;5.97;100.00
24230;BME280;12362;50.004;8.006;2023-12-20T08:55:59;100809.50;;;6.02;100.00
24230;BME280;12362;50.004;8.006;2023-12-20T08:58:27;100814.47;;;6.09;100.00
24230;BME280;12362;50.004;8.006;2023-12-20T09:00:53;100813.63;;;6.09;100.00
24230;BME280;12362;50.004;8.006;2023-12-20T09:03:18;100808.38;;;6.12;100.00
24230;BME280;12362;50.004;8.006;2023-12-20T09:05:44;100805.69;;;6.16;100.00
24230;BME280;12362;50.004;8.006;2023-12-20T09:08:09;100804.59;;;6.26;100.00
24230;BME280;12362;50.004;8.006;2023-12-20T09:10:36;100808.50;;;6.40;100.00
24230;BME280;12362;50.004;8.006;2023-12-20T09:13:02;100804.59;;;6.58;100.00
24230;BME280;12362;50.004;8.006;2023-12-20T09:15:29;100806.72;;;6.76;100.00
24230;BME280;12362;50.004;8.006;2023-12-20T09:17:55;100803.66;;;6.92;100.00
24230;BME280;12362;50.004;8.006;2023-12-20T09:20:21;100791.44;;;6.99;100.00
24230;BME280;12362;50.004;8.006;2023-12-20T09:22:48;100787.34;;;6.92;100.00
24230;BME280;12362;50.004;8.006;2023-12-20T09:25:14;100794.03;;;6.99;100.00
24230;BME280;12362;50.004;8.006;2023-12-20T09:27:41;100789.66;;;7.01;100.00
24230;BME280;12362;50.004;8.006;2023-12-20T09:30:07;100789.66;;;7.01;100.00
24230;BME280;12362;50.004;8.006;2023-12-20T09:32:32;100787.53;;;7.15;100.00
24230;BME280;12362;50.004;8.006;2023-12-20T09:34:58;100783.81;;;7.23;100.00
24230;BME280;12362;50.004;8.006;2023-12-20T09:37:26;100797.53;;;7.26;100.00
24230;BME280;12362;50.004;8.006;2023-12-20T09:39:52;100794.06;;;7.27;100.00
24230;BME280;12362;50.004;8.006;2023-12-20T09:42:29;100789.56;;;7.34;100.00
24230;BME280;12362;50.004;8.006;2023-12-20T09:44:59;100792.59;;;7.46;100.00
24230;BME280;12362;50.004;8.006;2023-12-20T09:47:28;100787.38;;;7.48;100.00
24230;BME280;12362;50.004;8.006;2023-12-20T09:49:54;100792.56;;;7.48;100.00
24230;BME280;12362;50.004;8.006;2023-12-20T09:52:22;100794.53;;;7.40;100.00
24230;BME280;12362;50.004;8.006;2023-12-20T09:54:50;100794.38;;;7.44;100.00
24230;BME280;12362;50.004;8.006;2023-12-20T09:57:17;100795.09;;;7.49;100.00
24230;BME280;12362;50.004;8.006;2023-12-20T09:59:43;100791.06;;;7.68;100.00
24230;BME280;12362;50.004;8.006;2023-12-20T10:02:13;100798.50;;;7.51;100.00
24230;BME280;12362;50.004;8.006;2023-12-20T10:04:46;100805.06;;;7.61;100.00
24230;BME280;12362;50.004;8.006;2023-12-20T10:07:11;100810.78;;;7.71;100.00
24230;BME280;12362;50.004;8.006;2023-12-20T10:09:38;100797.88;;;7.71;100.00
24230;BME280;12362;50.004;8.006;2023-12-20T10:12:04;100794.25;;;7.76;100.00
24230;BME280;12362;50.004;8.006;2023-12-20T10:14:30;100783.66;;;7.85;100.00
24230;BME280;12362;50.004;8.006;2023-12-20T10:17:04;100784.44;;;7.87;100.00
24230;BME280;12362;50.004;8.006;2023-12-20T10:19:31;100786.63;;;7.99;100.00
24230;BME280;12362;50.004;8.006;2023-12-20T10:22:00;100770.47;;;7.93;100.00
24230;BME280;12362;50.004;8.006;2023-12-20T10:24:28;100759.03;;;8.00;100.00
24230;BME280;12362;50.004;8.006;2023-12-20T10:27:07;100758.31;;;7.95;100.00
24230;BME280;12362;50.004;8.006;2023-12-20T10:29:34;100750.13;;;7.82;100.00
24230;BME280;12362;50.004;8.006;2023-12-20T10:34:46;100761.94;;;7.91;100.00
24230;BME280;12362;50.004;8.006;2023-12-20T10:37:11;100751.44;;;7.95;100.00
24230;BME280;12362;50.004;8.006;2023-12-20T10:39:37;100746.00;;;8.03;100.00
24230;BME280;12362;50.004;8.006;2023-12-20T10:42:04;100746.53;;;8.12;100.00
24230;BME280;12362;50.004;8.006;2023-12-20T10:44:30;100733.59;;;8.38;100.00
24230;BME280;12362;50.004;8.006;2023-12-20T10:46:55;100734.28;;;8.18;100.00
24230;BME280;12362;50.004;8.006;2023-12-20T10:49:25;100726.22;;;8.27;100.00
24230;BME280;12362;50.004;8.006;2023-12-20T10:51:54;100722.25;;;8.42;100.00
24230;BME280;12362;50.004;8.006;2023-12-20T10:54:19;100727.75;;;8.33;100.00
24230;BME280;12362;50.004;8.006;2023-12-20T10:56:45;100726.69;;;8.38;100.00
24230;BME280;12362;50.004;8.006;2023-12-20T10:59:11;100714.56;;;8.40;100.00
24230;BME280;12362;50.004;8.006;2023-12-20T11:01:40;100724.28;;;8.34;100.00
24230;BME280;12362;50.004;8.006;2023-12-20T11:04:08;100728.75;;;8.29;100.00
24230;BME280;12362;50.004;8.006;2023-12-20T11:06:46;100729.09;;;8.18;100.00
24230;BME280;12362;50.004;8.006;2023-12-20T11:11:49;100736.34;;;8.07;100.00
24230;BME280;12362;50.004;8.006;2023-12-20T11:14:48;100724.44;;;8.04;100.00
24230;BME280;12362;50.004;8.006;2023-12-20T11:17:14;100720.00;;;8.07;100.00
24230;BME280;12362;50.004;8.006;2023-12-20T11:22:27;100719.75;;;8.14;100.00
24230;BME280;12362;50.004;8.006;2023-12-20T11:24:53;100735.34;;;8.11;100.00
24230;BME280;12362;50.004;8.006;2023-12-20T11:27:19;100731.66;;;8.20;100.00
24230;BME280;12362;50.004;8.006;2023-12-20T11:29:52;100739.69;;;8.11;100.00
24230;BME280;12362;50.004;8.006;2023-12-20T11:34:55;100718.25;;;8.07;100.00
24230;BME280;12362;50.004;8.006;2023-12-20T11:37:20;100701.75;;;8.11;100.00
24230;BME280;12362;50.004;8.006;2023-12-20T11:39:56;100715.03;;;8.27;100.00
24230;BME280;12362;50.004;8.006;2023-12-20T11:42:25;100714.09;;;8.04;100.00
24230;BME280;12362;50.004;8.006;2023-12-20T11:44:50;100710.72;;;8.02;100.00
24230;BME280;12362;50.004;8.006;2023-12-20T11:47:16;100714.91;;;8.04;100.00
24230;BME280;12362;50.004;8.006;2023-12-20T11:49:46;100703.69;;;8.05;100.00
24230;BME280;12362;50.004;8.006;2023-12-20T11:52:12;100708.69;;;8.09;100.00
24230;BME280;12362;50.004;8.006;2023-12-20T11:54:41;100702.63;;;8.10;100.00
24230;BME280;12362;50.004;8.006;2023-12-20T11:57:07;100706.38;;;8.02;100.00
24230;BME280;12362;50.004;8.006;2023-12-20T11:59:33;100702.47;;;7.91;100.00
24230;BME280;12362;50.004;8.006;2023-12-20T12:01:59;100692.94;;;7.91;100.00
24230;BME280;12362;50.004;8.006;2023-12-20T12:04:26;100687.03;;;7.88;100.00
24230;BME280;12362;50.004;8.006;2023-12-20T12:06:53;100685.75;;;8.01;100.00
24230;BME280;12362;50.004;8.006;2023-12-20T12:09:19;100688.06;;;8.08;100.00
24230;BME280;12362;50.004;8.006;2023-12-20T12:11:47;100679.78;;;8.24;100.00
24230;BME280;12362;50.004;8.006;2023-12-20T12:14:13;100671.22;;;8.22;100.00
24230;BME280;12362;50.004;8.006;2023-12-20T12:16:39;100677.19;;;8.24;100.00
24230;BME280;12362;50.004;8.006;2023-12-20T12:19:04;100674.56;;;8.49;100.00
24230;BME280;12362;50.004;8.006;2023-12-20T12:21:29;100679.28;;;8.61;100.00
24230;BME280;12362;50.004;8.006;2023-12-20T12:24:09;100671.34;;;8.65;100.00
24230;BME280;12362;50.004;8.006;2023-12-20T12:26:34;100660.06;;;8.68;100.00
24230;BME280;12362;50.004;8.006;2023-12-20T12:29:00;100666.94;;;8.69;100.00
24230;BME280;12362;50.004;8.006;2023-12-20T12:31:26;100657.31;;;8.72;100.00
24230;BME280;12362;50.004;8.006;2023-12-20T12:33:52;100657.06;;;8.78;100.00
24230;BME280;12362;50.004;8.006;2023-12-20T12:36:17;100660.41;;;8.82;100.00
24230;BME280;12362;50.004;8.006;2023-12-20T12:38:43;100650.88;;;8.82;100.00
24230;BME280;12362;50.004;8.006;2023-12-20T12:41:09;100653.47;;;8.82;100.00
24230;BME280;12362;50.004;8.006;2023-12-20T12:43:35;100640.97;;;8.93;100.00
24230;BME280;12362;50.004;8.006;2023-12-20T12:46:01;100630.38;;;8.99;100.00
24230;BME280;12362;50.004;8.006;2023-12-20T12:48:26;100618.28;;;9.21;100.00
24230;BME280;12362;50.004;8.006;2023-12-20T12:50:53;100616.47;;;9.23;100.00
24230;BME280;12362;50.004;8.006;2023-12-20T12:53:19;100615.50;;;9.25;100.00
24230;BME280;12362;50.004;8.006;2023-12-20T12:55:45;100619.88;;;9.02;100.00